WetterOnline ( https://www.wetteronline.de )

Wetter aktuell Prag

Aktuelles Wetter: Prag-Kbely (287m)

6-stündlich | Neueste Meldungen
Ortszeit Temperatur Wetter
So, 29.11. 7:00 0.2° C wolkig
So, 29.11. 1:00 1.4° C bewölkt
Sa, 28.11. 19:00 1.6° C bewölkt
Sa, 28.11. 13:00 1.0° C bedeckt
Sa, 28.11. 7:00 -0.3° C Nebel mit Raueis
Sa, 28.11. 1:00 -0.2° C Nebel (zunehmend)
Fr, 27.11. 19:00 0.3° C bedeckt
Fr, 27.11. 13:00 -0.4° C bedeckt
Ortszeit Temperatur Wetter
So, 29.11. 11:30 3° C leicht bewölkt
So, 29.11. 11:00 3.1° C leicht bewölkt
So, 29.11. 10:30 2° C leicht bewölkt
So, 29.11. 10:00 1.9° C wolkig
So, 29.11. 9:30 1° C bewölkt
So, 29.11. 9:00 1.3° C leicht bewölkt
So, 29.11. 8:30 0° C bewölkt
So, 29.11. 8:00 -0.4° C leicht bewölkt
Ortszeit Relative Feuchte Sichtweite
So, 29.11. 7:00 85% 20 km
So, 29.11. 1:00 78% 20 km
Sa, 28.11. 19:00 84% 15 km
Sa, 28.11. 13:00 97% 5.0 km
Sa, 28.11. 7:00 97% 0.4 km
Sa, 28.11. 1:00 96% 0.6 km
Fr, 27.11. 19:00 92% 4.0 km
Fr, 27.11. 13:00 92% 2.5 km
Ortszeit Relative Feuchte Sichtweite
So, 29.11. 11:30 75% >10 km
So, 29.11. 11:00 76% 30 km
So, 29.11. 10:30 80% >10 km
So, 29.11. 10:00 80% 30 km
So, 29.11. 9:30 80% >10 km
So, 29.11. 9:00 77% 30 km
So, 29.11. 8:30 86% >10 km
So, 29.11. 8:00 85% 25 km
Ortszeit Niederschlagsmenge Niederschlagsart
So, 29.11. 7:00 0.0 l/m2 in 12 Std. -
So, 29.11. 1:00 0.0 l/m2 in 6 Std. -
Sa, 28.11. 19:00 0.1 l/m2 in 12 Std. -
Sa, 28.11. 13:00 0.1 l/m2 in 6 Std. Sprühregen, Nebel
Sa, 28.11. 7:00 0.0 l/m2 in 12 Std. Nebel
Sa, 28.11. 1:00 0.0 l/m2 in 6 Std. Nebel
Fr, 27.11. 19:00 0.0 l/m2 in 12 Std. -
Fr, 27.11. 13:00 0.0 l/m2 in 6 Std. -
Ortszeit Niederschlagsmenge Niederschlagsart
So, 29.11. 11:30 keine Meldung -
So, 29.11. 11:00 0.0 l/m2 in 1 Std. -
So, 29.11. 10:30 keine Meldung -
So, 29.11. 10:00 0.0 l/m2 in 1 Std. -
So, 29.11. 9:30 keine Meldung -
So, 29.11. 9:00 0.0 l/m2 in 1 Std. -
So, 29.11. 8:30 keine Meldung -
So, 29.11. 8:00 0.0 l/m2 in 1 Std. -
Ortszeit Stärke Spitze Richtung
km/h Bft. km/h Grad Sektor
So, 29.11. 7:00 7 2 - 290° W
So, 29.11. 1:00 7 2 - 330° NW
Sa, 28.11. 19:00 4 1 - 270° W
Sa, 28.11. 13:00 4 1 - 60° NO
Sa, 28.11. 7:00 4 1 - 10° N
Sa, 28.11. 1:00 7 2 - 190° S
Fr, 27.11. 19:00 4 1 - 180° S
Fr, 27.11. 13:00 7 2 - 200° S
Ortszeit Stärke Spitze Richtung
km/h Bft. km/h Grad Sektor
So, 29.11. 11:30 17 3 - 320° NW
So, 29.11. 11:00 14 3 - 320° NW
So, 29.11. 10:30 11 2 - 320° NW
So, 29.11. 10:00 11 2 - 320° NW
So, 29.11. 9:30 11 2 - 300° NW
So, 29.11. 9:00 11 2 - 310° NW
So, 29.11. 8:30 11 2 - 320° NW
So, 29.11. 8:00 7 2 - 320° NW
Ortszeit Untergrenze Bedeckung Gattung
total tief tief mittel hoch
So, 29.11. 7:00 1080 m 5/8 5/8 Sc - -
So, 29.11. 1:00 1170 m 7/8 7/8 Sc - -
Sa, 28.11. 19:00 810 m 7/8 7/8 Sc - -
Sa, 28.11. 13:00 180 m 8/8 8/8 St - -
Sa, 28.11. 7:00 30 m - - - - -
Sa, 28.11. 1:00 30 m 8/8 8/8 St - -
Fr, 27.11. 19:00 120 m 8/8 8/8 St - -
Fr, 27.11. 13:00 90 m 8/8 8/8 St - -
Ortszeit Bedeckungsgrad in Achtel und Wolkenuntergrenze
So, 29.11. 11:30 1-2(540m)
So, 29.11. 11:00 2(1050m)
So, 29.11. 10:30 1-2(480m) 3-4(1020m)
So, 29.11. 10:00 6(1080m)
So, 29.11. 9:30 1-2(420m) 5-7(1200m)
So, 29.11. 9:00 1(1140m) 4(3000m)
So, 29.11. 8:30 3-4(1110m) 5-7(3000m)
So, 29.11. 8:00 3(3000m)
Ortszeit Luftdruck NN (hPa) Tendenz (hPa in 3 Std.)
So, 29.11. 7:00 1026 - 0,1
So, 29.11. 1:00 1026 - 0,4
Sa, 28.11. 19:00 1026 + 0,6
Sa, 28.11. 13:00 1025 - 0,5
Sa, 28.11. 7:00 1024 + 0,2
Sa, 28.11. 1:00 1024 - 0,4
Fr, 27.11. 19:00 1025 + 0,3
Fr, 27.11. 13:00 1025 - 0,8
Ortszeit Luftdruck NN (hPa) Tendenz (hPa in 3 Std.)
So, 29.11. 11:30 1023 keine Meldung
So, 29.11. 11:00 1026 + 0,3
So, 29.11. 10:30 1024 keine Meldung
So, 29.11. 10:00 1026 + 0,8
So, 29.11. 9:30 1024 keine Meldung
So, 29.11. 9:00 1026 + 0,6
So, 29.11. 8:30 1023 keine Meldung
So, 29.11. 8:00 1026 + 0,3
Ortszeit Schneehöhe (cm)
So, 29.11. 7:00 -
So, 29.11. 1:00 -
Sa, 28.11. 19:00 -
Sa, 28.11. 13:00 -
Sa, 28.11. 7:00 -
Sa, 28.11. 1:00 -
Fr, 27.11. 19:00 0
Fr, 27.11. 13:00 -
Ortszeit Schneehöhe (cm)
So, 29.11. 11:30 -
So, 29.11. 11:00 -
So, 29.11. 10:30 -
So, 29.11. 10:00 -
So, 29.11. 9:30 -
So, 29.11. 9:00 -
So, 29.11. 8:30 -
So, 29.11. 8:00 -
Link zu dieser Seite / Seite empfehlen

Das Wetter in ...